createdAt,value
2022-11-25T00:01:21.912Z,82.70
2022-11-25T00:03:50.123Z,89.20
2022-11-25T00:06:21.176Z,91.10
2022-11-25T00:08:51.498Z,89.00
2022-11-25T00:11:19.045Z,87.40
2022-11-25T00:13:47.836Z,81.70
2022-11-25T00:16:17.819Z,83.70
2022-11-25T00:18:49.824Z,88.90
2022-11-25T00:21:22.779Z,90.80
2022-11-25T00:23:55.477Z,90.60
2022-11-25T00:26:24.479Z,89.00
2022-11-25T00:28:52.705Z,91.10
2022-11-25T00:31:22.909Z,90.60
2022-11-25T00:33:51.319Z,84.50
2022-11-25T00:36:31.674Z,87.00
2022-11-25T00:39:02.857Z,88.70
2022-11-25T00:41:48.969Z,89.70
2022-11-25T00:44:37.813Z,84.20
2022-11-25T00:47:15.250Z,89.60
2022-11-25T00:49:48.264Z,87.00
2022-11-25T00:52:23.965Z,83.50
2022-11-25T00:54:52.236Z,87.10
2022-11-25T00:57:23.134Z,87.70
2022-11-25T00:59:50.570Z,88.40
2022-11-25T01:02:18.643Z,89.40
2022-11-25T01:04:47.175Z,86.90
2022-11-25T01:07:17.577Z,83.10
2022-11-25T01:09:45.480Z,86.10
2022-11-25T01:12:12.634Z,85.80
2022-11-25T01:14:40.580Z,86.30
2022-11-25T01:17:07.749Z,82.90
2022-11-25T01:19:40.023Z,80.60
2022-11-25T01:22:08.750Z,81.10
2022-11-25T01:24:36.375Z,83.10
2022-11-25T01:27:04.640Z,90.20
2022-11-25T01:29:31.963Z,90.30
2022-11-25T01:31:59.014Z,90.60
2022-11-25T01:34:27.626Z,90.60
2022-11-25T01:36:57.458Z,88.90
2022-11-25T01:39:32.088Z,89.90
2022-11-25T01:41:59.950Z,89.00
2022-11-25T01:44:30.589Z,90.90
2022-11-25T01:47:05.697Z,91.80
2022-11-25T01:49:36.138Z,91.00
2022-11-25T01:52:24.561Z,91.50
2022-11-25T01:55:10.168Z,92.50
2022-11-25T01:57:51.781Z,91.30
2022-11-25T02:00:19.835Z,91.80
2022-11-25T02:02:52.185Z,91.00
2022-11-25T02:05:33.816Z,91.60
2022-11-25T02:08:01.449Z,94.20
2022-11-25T02:10:32.108Z,94.50
2022-11-25T02:12:59.641Z,94.40
2022-11-25T02:15:28.748Z,93.30
2022-11-25T02:17:56.203Z,92.90
2022-11-25T02:20:24.710Z,92.40
2022-11-25T02:23:50.096Z,92.80
2022-11-25T02:26:17.762Z,93.30
2022-11-25T02:28:44.916Z,93.40
2022-11-25T02:31:12.457Z,93.40
2022-11-25T02:33:39.501Z,92.60
2022-11-25T02:36:18.644Z,91.60
2022-11-25T02:38:47.726Z,91.10
2022-11-25T02:41:18.398Z,91.10
2022-11-25T02:43:48.604Z,93.50
2022-11-25T02:46:22.251Z,94.90
2022-11-25T02:51:44.470Z,95.60
2022-11-25T02:54:13.225Z,94.20
2022-11-25T02:56:40.813Z,93.40
2022-11-25T02:59:09.331Z,93.70
2022-11-25T03:01:38.452Z,94.30
2022-11-25T03:04:07.635Z,94.50
2022-11-25T03:06:35.933Z,96.10
2022-11-25T03:09:03.801Z,96.20
2022-11-25T03:11:50.391Z,96.40
2022-11-25T03:14:17.936Z,97.10
2022-11-25T03:16:45.416Z,96.30
2022-11-25T03:19:12.551Z,95.60
2022-11-25T03:21:39.817Z,95.40
2022-11-25T03:24:07.752Z,95.40
2022-11-25T03:26:35.036Z,94.10
2022-11-25T03:29:02.244Z,92.50
2022-11-25T03:31:29.656Z,91.80
2022-11-25T03:33:56.648Z,91.60
2022-11-25T03:36:24.029Z,90.50
2022-11-25T03:38:51.115Z,92.00
2022-11-25T03:41:18.724Z,92.30
2022-11-25T03:43:47.172Z,93.20
2022-11-25T03:46:14.744Z,92.10
2022-11-25T03:48:41.853Z,91.90
2022-11-25T03:51:09.177Z,92.10
2022-11-25T03:53:36.306Z,92.60
2022-11-25T03:56:06.623Z,92.00
2022-11-25T03:58:34.788Z,91.10
2022-11-25T04:01:04.455Z,90.10
2022-11-25T04:03:32.199Z,90.30
2022-11-25T04:05:59.966Z,90.30
2022-11-25T04:08:28.283Z,90.10
2022-11-25T04:10:55.949Z,89.90
2022-11-25T04:13:26.785Z,84.40
2022-11-25T04:15:54.067Z,82.00
2022-11-25T04:18:21.714Z,83.70
2022-11-25T04:20:52.817Z,90.70
2022-11-25T04:23:20.052Z,91.30
2022-11-25T04:25:59.521Z,91.10
2022-11-25T04:28:33.744Z,92.50
2022-11-25T04:31:06.820Z,91.90
2022-11-25T04:33:36.542Z,91.00
2022-11-25T04:36:04.265Z,90.70
2022-11-25T04:38:31.560Z,90.40
2022-11-25T04:40:59.004Z,91.80
2022-11-25T04:43:26.799Z,92.60
2022-11-25T04:46:13.868Z,91.90
2022-11-25T04:48:43.805Z,92.40
2022-11-25T04:51:11.150Z,91.30
2022-11-25T04:53:39.574Z,92.10
2022-11-25T04:56:10.365Z,92.80
2022-11-25T04:59:01.644Z,92.10
2022-11-25T05:01:29.238Z,91.80
2022-11-25T05:04:05.092Z,92.20
2022-11-25T05:06:35.538Z,91.40
2022-11-25T05:09:04.633Z,89.90
2022-11-25T05:11:34.234Z,90.00
2022-11-25T05:14:01.465Z,88.70
2022-11-25T05:16:28.863Z,91.10
2022-11-25T05:18:56.870Z,90.60
2022-11-25T05:21:26.374Z,90.80
2022-11-25T05:23:56.079Z,89.60
2022-11-25T05:26:25.770Z,87.30
2022-11-25T05:28:56.080Z,90.50
2022-11-25T05:31:23.562Z,91.30
2022-11-25T05:33:50.950Z,94.20
2022-11-25T05:36:18.989Z,94.80
2022-11-25T05:38:47.667Z,95.00
2022-11-25T05:41:21.211Z,95.30
2022-11-25T05:43:48.383Z,93.80
2022-11-25T05:46:15.954Z,94.70
2022-11-25T05:48:48.175Z,94.50
2022-11-25T05:51:15.677Z,95.20
2022-11-25T05:53:42.907Z,96.30
2022-11-25T05:56:10.615Z,97.50
2022-11-25T05:59:07.533Z,99.10
2022-11-25T06:01:47.222Z,97.40
2022-11-25T06:04:15.307Z,95.70
2022-11-25T06:06:42.599Z,94.20
2022-11-25T06:09:09.632Z,94.20
2022-11-25T06:11:38.244Z,94.50
2022-11-25T06:14:05.223Z,96.10
2022-11-25T06:16:32.683Z,97.00
2022-11-25T06:19:08.401Z,94.60
2022-11-25T06:21:37.256Z,93.40
2022-11-25T06:24:04.460Z,94.10
2022-11-25T06:26:31.966Z,94.00
2022-11-25T06:28:59.206Z,96.40
2022-11-25T06:31:28.467Z,96.00
2022-11-25T06:34:14.352Z,95.60
2022-11-25T06:36:45.114Z,94.10
2022-11-25T06:39:12.358Z,92.80
2022-11-25T06:41:39.625Z,92.30
2022-11-25T06:44:06.971Z,91.10
2022-11-25T06:46:34.307Z,90.00
2022-11-25T06:49:01.527Z,87.50
2022-11-25T06:51:29.006Z,86.00
2022-11-25T06:53:56.074Z,85.00
2022-11-25T06:56:26.187Z,81.30
2022-11-25T06:58:54.315Z,80.70
2022-11-25T07:01:24.067Z,79.90
2022-11-25T07:04:00.784Z,77.10
2022-11-25T07:06:28.069Z,76.10
2022-11-25T07:08:55.308Z,73.80
2022-11-25T07:11:27.096Z,72.70
2022-11-25T07:13:57.352Z,71.70
2022-11-25T07:16:25.339Z,72.10
2022-11-25T07:18:52.660Z,70.00
2022-11-25T07:21:23.960Z,68.40
2022-11-25T07:23:52.337Z,64.90
2022-11-25T07:26:25.267Z,66.60
2022-11-25T07:28:55.925Z,59.30
2022-11-25T07:31:31.308Z,62.50
2022-11-25T07:34:05.092Z,60.40
2022-11-25T07:36:34.916Z,53.50
2022-11-25T07:39:05.511Z,53.20
2022-11-25T07:41:33.399Z,56.00
2022-11-25T07:44:05.947Z,56.20
2022-11-25T07:46:47.431Z,54.00
2022-11-25T07:49:18.026Z,59.20
2022-11-25T07:51:54.196Z,56.10
2022-11-25T07:54:22.726Z,52.90
2022-11-25T07:56:50.986Z,50.50
2022-11-25T07:59:20.085Z,52.40
2022-11-25T08:01:50.500Z,48.30
2022-11-25T08:04:20.514Z,57.30
2022-11-25T08:06:50.724Z,52.70
2022-11-25T08:09:22.727Z,47.40
2022-11-25T08:11:50.848Z,40.90
2022-11-25T08:14:19.354Z,42.10
2022-11-25T08:16:49.105Z,50.90
2022-11-25T08:19:17.642Z,49.00
2022-11-25T08:21:45.057Z,55.30
2022-11-25T08:24:17.675Z,55.40
2022-11-25T08:26:46.815Z,61.00
2022-11-25T08:29:20.678Z,56.70
2022-11-25T08:31:48.263Z,55.90
2022-11-25T08:34:22.296Z,55.10
2022-11-25T08:36:54.889Z,51.60
2022-11-25T08:39:51.363Z,52.60
2022-11-25T08:42:10.416Z,51.20
2022-11-25T08:44:39.488Z,55.80
2022-11-25T08:47:06.837Z,50.40
2022-11-25T08:49:39.172Z,53.10
2022-11-25T08:52:08.926Z,46.00
2022-11-25T08:54:35.895Z,40.10
2022-11-25T08:57:03.299Z,41.30
2022-11-25T08:59:30.436Z,44.90
2022-11-25T09:01:58.409Z,42.00
2022-11-25T09:04:25.674Z,48.80
2022-11-25T09:06:53.270Z,41.60
2022-11-25T09:09:20.548Z,37.80
2022-11-25T09:11:48.530Z,45.30
2022-11-25T09:14:15.841Z,37.90
2022-11-25T09:16:44.000Z,35.10
2022-11-25T09:19:12.539Z,32.70
2022-11-25T09:21:40.293Z,27.40
2022-11-25T09:24:07.444Z,24.30
2022-11-25T09:26:36.586Z,14.50
2022-11-25T09:29:04.063Z,21.00
2022-11-25T09:31:31.893Z,19.70
2022-11-25T09:33:59.037Z,24.90
2022-11-25T09:36:26.400Z,32.10
2022-11-25T09:38:53.464Z,31.80
2022-11-25T09:42:08.134Z,35.80
2022-11-25T09:45:32.334Z,29.30
2022-11-25T09:47:59.601Z,29.50
2022-11-25T09:50:34.713Z,36.40
2022-11-25T09:53:20.604Z,37.50
2022-11-25T09:55:51.125Z,28.50
2022-11-25T09:58:27.026Z,28.60
2022-11-25T10:00:54.062Z,30.30
2022-11-25T10:03:44.665Z,25.60
2022-11-25T10:06:11.812Z,31.10
2022-11-25T10:08:42.880Z,15.40
2022-11-25T10:11:25.200Z,8.30
2022-11-25T10:14:20.806Z,22.20
2022-11-25T10:16:57.032Z,20.30
2022-11-25T10:19:52.009Z,21.80
2022-11-25T10:22:26.346Z,24.40
2022-11-25T10:24:57.780Z,10.80
2022-11-25T10:27:41.561Z,20.10
2022-11-25T10:30:22.749Z,22.90
2022-11-25T10:33:03.502Z,16.50
2022-11-25T10:35:49.070Z,19.50
2022-11-25T10:38:26.086Z,18.10
2022-11-25T10:40:55.104Z,19.10
2022-11-25T10:43:24.104Z,16.70
2022-11-25T10:45:59.344Z,7.80
2022-11-25T10:48:47.244Z,14.60
2022-11-25T10:51:35.661Z,1.00
2022-11-25T10:54:09.603Z,2.60
2022-11-25T10:56:57.527Z,1.00
2022-11-25T10:59:33.217Z,1.00
2022-11-25T11:02:21.268Z,1.00
2022-11-25T11:05:02.347Z,1.00
2022-11-25T11:07:36.215Z,1.00
2022-11-25T11:10:26.357Z,1.00
2022-11-25T11:12:57.083Z,1.00
2022-11-25T11:15:25.575Z,1.00
2022-11-25T11:17:55.251Z,1.00
2022-11-25T11:20:29.340Z,1.00
2022-11-25T11:23:10.491Z,1.00
2022-11-25T11:25:40.140Z,1.00
2022-11-25T11:28:34.726Z,1.00
2022-11-25T11:31:27.386Z,1.00
2022-11-25T11:34:23.646Z,1.00
2022-11-25T11:37:36.569Z,1.00
2022-11-25T11:40:25.869Z,1.00
2022-11-25T11:43:27.034Z,1.00
2022-11-25T11:46:19.185Z,99.90
2022-11-25T11:48:59.290Z,1.00
2022-11-25T11:51:47.355Z,1.00
2022-11-25T11:54:29.446Z,99.90
2022-11-25T11:57:02.179Z,99.90
2022-11-25T11:59:35.650Z,99.90
2022-11-25T12:02:15.187Z,99.90
2022-11-25T12:04:55.244Z,99.90
2022-11-25T12:07:45.153Z,99.90
2022-11-25T12:10:15.081Z,99.90
2022-11-25T12:12:51.000Z,99.90
2022-11-25T12:15:43.879Z,99.90
2022-11-25T12:18:23.778Z,99.90
2022-11-25T12:21:06.937Z,99.90
2022-11-25T12:23:51.266Z,99.90
2022-11-25T12:26:24.353Z,99.90
2022-11-25T12:29:07.241Z,99.90
2022-11-25T12:31:48.771Z,99.90
2022-11-25T12:34:44.646Z,99.90
2022-11-25T12:37:18.042Z,99.90
2022-11-25T12:39:55.250Z,1.00
2022-11-25T12:42:28.345Z,1.00
2022-11-25T12:45:01.385Z,1.00
2022-11-25T12:47:30.830Z,99.90
2022-11-25T12:49:58.916Z,99.90
2022-11-25T12:52:44.012Z,99.90
2022-11-25T12:55:23.500Z,1.00
2022-11-25T12:57:56.342Z,99.90
2022-11-25T13:00:46.889Z,99.90
2022-11-25T13:03:20.146Z,99.90
2022-11-25T13:06:05.092Z,99.90
2022-11-25T13:09:19.841Z,99.90
2022-11-25T13:12:32.537Z,99.90
2022-11-25T13:15:28.697Z,99.90
2022-11-25T13:18:01.046Z,99.90
2022-11-25T13:20:28.100Z,99.90
2022-11-25T13:23:22.581Z,99.90
2022-11-25T13:25:54.117Z,99.90
2022-11-25T13:28:36.648Z,99.90
2022-11-25T13:31:17.746Z,99.90
2022-11-25T13:33:45.054Z,99.90
2022-11-25T13:36:23.285Z,99.90
2022-11-25T13:38:53.302Z,99.90
2022-11-25T13:41:22.127Z,99.90
2022-11-25T13:44:17.138Z,99.90
2022-11-25T13:46:52.304Z,99.90
2022-11-25T13:49:38.559Z,1.00
2022-11-25T13:52:11.598Z,99.90
2022-11-25T13:54:45.612Z,1.00
2022-11-25T13:57:12.614Z,1.00
2022-11-25T13:59:43.081Z,1.00
2022-11-25T14:02:31.026Z,1.00
2022-11-25T14:05:34.101Z,1.00
2022-11-25T14:08:27.727Z,1.00
2022-11-25T14:11:12.527Z,1.00
2022-11-25T14:14:14.129Z,1.00
2022-11-25T14:17:10.798Z,1.00
2022-11-25T14:20:16.500Z,1.00
2022-11-25T14:23:09.440Z,1.00
2022-11-25T14:25:55.734Z,1.00
2022-11-25T14:28:42.863Z,1.00
2022-11-25T14:31:19.516Z,1.00
2022-11-25T14:34:39.954Z,1.00
2022-11-25T14:37:24.445Z,1.00
2022-11-25T14:39:57.161Z,1.00
2022-11-25T14:42:27.832Z,1.00
2022-11-25T14:44:58.277Z,1.00
2022-11-25T14:47:27.694Z,1.00
2022-11-25T14:50:26.859Z,1.00
2022-11-25T14:52:47.563Z,1.00
2022-11-25T14:55:29.351Z,1.00
2022-11-25T14:57:56.678Z,1.00
2022-11-25T15:00:24.217Z,1.00
2022-11-25T15:03:00.212Z,1.00
2022-11-25T15:05:40.911Z,1.00
2022-11-25T15:08:07.921Z,1.00
2022-11-25T15:10:44.624Z,1.00
2022-11-25T15:13:29.002Z,1.00
2022-11-25T15:16:06.764Z,1.00
2022-11-25T15:18:35.600Z,1.00
2022-11-25T15:21:04.069Z,1.00
2022-11-25T15:23:34.746Z,1.00
2022-11-25T15:26:03.814Z,1.00
2022-11-25T15:28:40.478Z,1.00
2022-11-25T15:31:16.430Z,1.00
2022-11-25T15:33:44.299Z,1.00
2022-11-25T15:36:11.870Z,1.00
2022-11-25T15:38:45.766Z,1.00
2022-11-25T15:41:36.185Z,1.00
2022-11-25T15:44:05.525Z,1.00
2022-11-25T15:46:35.706Z,1.00
2022-11-25T15:49:06.223Z,1.00
2022-11-25T15:51:49.414Z,1.00
2022-11-25T15:54:21.829Z,1.00
2022-11-25T15:56:55.671Z,1.00
2022-11-25T15:59:47.049Z,1.00
2022-11-25T16:02:38.333Z,1.00
2022-11-25T16:05:14.616Z,1.00
2022-11-25T16:07:53.706Z,1.00
2022-11-25T16:10:25.180Z,1.00
2022-11-25T16:13:23.621Z,1.00
2022-11-25T16:16:19.782Z,99.90
2022-11-25T16:19:02.033Z,99.90
2022-11-25T16:21:42.678Z,1.00
2022-11-25T16:24:33.875Z,1.00
2022-11-25T16:27:26.584Z,1.00
2022-11-25T16:30:20.181Z,1.00
2022-11-25T16:32:47.175Z,1.00
2022-11-25T16:35:22.153Z,1.00
2022-11-25T16:37:49.859Z,1.00
2022-11-25T16:40:18.821Z,1.00
2022-11-25T16:42:51.744Z,1.00
2022-11-25T16:45:24.913Z,1.00
2022-11-25T16:47:52.422Z,1.00
2022-11-25T16:50:21.116Z,1.00
2022-11-25T16:52:50.007Z,1.00
2022-11-25T16:55:18.787Z,1.00
2022-11-25T16:57:46.042Z,1.00
2022-11-25T17:00:19.827Z,1.00
2022-11-25T17:02:46.867Z,1.00
2022-11-25T17:05:25.928Z,1.00
2022-11-25T17:07:53.211Z,1.00
2022-11-25T17:10:21.221Z,1.00
2022-11-25T17:12:49.617Z,1.00
2022-11-25T17:15:20.755Z,1.00
2022-11-25T17:17:49.331Z,1.00
2022-11-25T17:20:19.080Z,1.00
2022-11-25T17:22:46.103Z,1.00
2022-11-25T17:25:13.871Z,1.00
2022-11-25T17:27:41.863Z,1.00
2022-11-25T17:30:19.490Z,1.00
2022-11-25T17:32:47.982Z,1.00
2022-11-25T17:35:18.858Z,1.00
2022-11-25T17:37:46.578Z,1.00
2022-11-25T17:40:14.580Z,1.00
2022-11-25T17:42:42.781Z,1.00
2022-11-25T17:45:13.896Z,1.00
2022-11-25T17:47:41.338Z,1.00
2022-11-25T17:50:20.796Z,1.00
2022-11-25T17:52:52.664Z,1.00
2022-11-25T17:55:22.006Z,1.00
2022-11-25T17:57:50.541Z,1.00
2022-11-25T18:00:20.919Z,1.00
2022-11-25T18:02:48.589Z,1.00
2022-11-25T18:05:18.329Z,1.00
2022-11-25T18:07:45.453Z,1.00
2022-11-25T18:10:16.719Z,1.00
2022-11-25T18:12:45.990Z,1.00
2022-11-25T18:15:19.081Z,1.00
2022-11-25T18:17:47.203Z,1.00
2022-11-25T18:20:18.810Z,1.00
2022-11-25T18:22:46.326Z,1.00
2022-11-25T18:25:15.923Z,1.00
2022-11-25T18:27:44.357Z,1.00
2022-11-25T18:30:20.619Z,1.00
2022-11-25T18:32:48.450Z,1.00
2022-11-25T18:35:20.458Z,1.00
2022-11-25T18:37:48.018Z,1.00
2022-11-25T18:40:16.242Z,1.00
2022-11-25T18:42:45.455Z,1.00
2022-11-25T18:45:19.622Z,1.00
2022-11-25T18:47:47.424Z,1.00
2022-11-25T18:50:20.595Z,1.00
2022-11-25T18:52:48.134Z,1.00
2022-11-25T18:55:18.880Z,1.40
2022-11-25T18:57:48.672Z,1.00
2022-11-25T19:00:32.184Z,1.00
2022-11-25T19:03:00.069Z,1.00
2022-11-25T19:05:32.770Z,3.10
2022-11-25T19:08:00.501Z,1.00
2022-11-25T19:10:31.416Z,4.70
2022-11-25T19:13:02.789Z,1.00
2022-11-25T19:15:30.118Z,1.00
2022-11-25T19:17:59.661Z,1.00
2022-11-25T19:20:28.610Z,1.00
2022-11-25T19:23:00.585Z,1.00
2022-11-25T19:25:31.136Z,4.00
2022-11-25T19:28:00.372Z,1.00
2022-11-25T19:30:31.749Z,1.00
2022-11-25T19:33:01.926Z,1.00
2022-11-25T19:35:35.548Z,1.00
2022-11-25T19:38:10.596Z,1.00
2022-11-25T19:40:40.472Z,1.00
2022-11-25T19:43:08.672Z,1.00
2022-11-25T19:45:36.522Z,1.00
2022-11-25T19:48:08.059Z,1.00
2022-11-25T19:50:38.818Z,1.00
2022-11-25T19:53:09.510Z,1.00
2022-11-25T19:55:36.554Z,1.00
2022-11-25T19:58:03.988Z,1.00
2022-11-25T20:00:31.163Z,1.00
2022-11-25T20:02:59.347Z,1.00
2022-11-25T20:05:33.157Z,1.00
2022-11-25T20:08:01.099Z,1.00
2022-11-25T20:10:30.407Z,1.00
2022-11-25T20:12:59.157Z,1.00
2022-11-25T20:15:27.234Z,1.00
2022-11-25T20:17:58.681Z,5.30
2022-11-25T20:20:37.025Z,7.90
2022-11-25T20:23:07.785Z,1.00
2022-11-25T20:25:46.942Z,1.00
2022-11-25T20:28:22.441Z,1.00
2022-11-25T20:30:50.377Z,1.00
2022-11-25T20:33:23.829Z,7.70
2022-11-25T20:35:59.345Z,11.80
2022-11-25T20:38:27.693Z,2.40
2022-11-25T20:40:57.199Z,1.00
2022-11-25T20:43:27.626Z,2.10
2022-11-25T20:45:55.737Z,1.00
2022-11-25T20:48:23.929Z,1.00
2022-11-25T20:50:53.925Z,1.00
2022-11-25T20:53:22.759Z,1.00
2022-11-25T20:55:50.628Z,1.00
2022-11-25T20:58:19.827Z,1.00
2022-11-25T21:00:47.456Z,11.70
2022-11-25T21:03:15.383Z,12.80
2022-11-25T21:05:43.170Z,6.60
2022-11-25T21:08:18.971Z,1.00
2022-11-25T21:10:47.184Z,14.90
2022-11-25T21:13:23.812Z,21.10
2022-11-25T21:15:54.079Z,14.80
2022-11-25T21:18:22.402Z,4.00
2022-11-25T21:20:51.697Z,1.00
2022-11-25T21:23:32.392Z,1.00
2022-11-25T21:26:26.578Z,1.00
2022-11-25T21:28:54.672Z,1.00
2022-11-25T21:31:24.746Z,1.00
2022-11-25T21:33:57.955Z,1.00
2022-11-25T21:36:30.506Z,1.00
2022-11-25T21:39:05.136Z,1.00
2022-11-25T21:41:32.737Z,1.00
2022-11-25T21:44:00.200Z,4.40
2022-11-25T21:46:28.896Z,3.80
2022-11-25T21:48:56.306Z,11.30
2022-11-25T21:51:26.497Z,9.30
2022-11-25T21:53:54.631Z,8.10
2022-11-25T21:56:26.444Z,8.70
2022-11-25T21:58:58.474Z,2.00
2022-11-25T22:01:26.000Z,1.00
2022-11-25T22:03:54.120Z,1.00
2022-11-25T22:06:29.393Z,2.00
2022-11-25T22:08:57.432Z,1.00
2022-11-25T22:11:37.114Z,1.00
2022-11-25T22:14:17.167Z,1.00
2022-11-25T22:16:44.400Z,1.00
2022-11-25T22:19:20.431Z,3.60
2022-11-25T22:21:47.531Z,2.40
2022-11-25T22:24:17.060Z,1.00
2022-11-25T22:26:54.644Z,1.90
2022-11-25T22:29:36.024Z,1.00
2022-11-25T22:32:08.198Z,6.80
2022-11-25T22:34:39.867Z,7.40
2022-11-25T22:37:18.648Z,11.40
2022-11-25T22:39:45.994Z,13.00
2022-11-25T22:42:24.461Z,19.40
2022-11-25T22:44:53.120Z,19.30
2022-11-25T22:47:41.327Z,12.70
2022-11-25T22:50:15.691Z,18.90
2022-11-25T22:52:42.639Z,25.30
2022-11-25T22:55:20.522Z,23.70
2022-11-25T22:57:49.757Z,27.90
2022-11-25T23:00:21.668Z,17.40
2022-11-25T23:02:50.806Z,18.50
2022-11-25T23:05:28.998Z,22.40
2022-11-25T23:07:59.113Z,25.10
2022-11-25T23:10:29.872Z,14.00
2022-11-25T23:12:56.851Z,15.80
2022-11-25T23:15:24.906Z,25.20
2022-11-25T23:17:57.942Z,27.70
2022-11-25T23:20:28.095Z,28.10
2022-11-25T23:22:55.111Z,25.10
2022-11-25T23:25:23.591Z,27.80
2022-11-25T23:27:50.552Z,24.20
2022-11-25T23:30:23.361Z,22.50
2022-11-25T23:32:53.190Z,15.70
2022-11-25T23:35:29.942Z,10.50
2022-11-25T23:37:58.585Z,7.20
2022-11-25T23:40:27.187Z,9.50
2022-11-25T23:42:55.578Z,16.90
2022-11-25T23:45:25.014Z,13.60
2022-11-25T23:47:53.503Z,11.60
2022-11-25T23:50:30.436Z,12.30
2022-11-25T23:53:03.250Z,24.30
2022-11-25T23:55:34.787Z,24.30
2022-11-25T23:58:04.574Z,22.90
